Time;durP1;ratioP1;P1;durP2;ratioP2;P2;SDS_P1;SDS_P2;PMS_P1;PMS_P2;Temp;Humidity;BMP_temperature;BMP_pressure;BME280_temperature;BME280_humidity;BME280_pressure;Samples;Min_cycle;Max_cycle;Signal;HPM_P1;HPM_P2
2021/12/31 00:01:46;;;;;;;1.80;1.20;;;;;;;;;;5035520;28;20861;-64
2021/12/31 00:04:12;;;;;;;2.73;1.40;;;;;;;;;;5034850;28;20418;-64
2021/12/31 00:06:42;;;;;;;2.50;1.50;;;;;;;;;;5035121;28;20472;-64
2021/12/31 00:09:08;;;;;;;2.30;1.33;;;;;;;;;;5034994;28;20403;-64
2021/12/31 00:11:35;;;;;;;1.77;1.20;;;;;;;;;;5035426;28;20403;-64
2021/12/31 00:14:01;;;;;;;1.67;1.13;;;;;;;;;;5034909;28;20909;-64
2021/12/31 00:16:27;;;;;;;2.00;1.23;;;;;;;;;;5035022;28;20817;-64
2021/12/31 00:18:54;;;;;;;2.10;1.20;;;;;;;;;;5035036;28;20502;-64
2021/12/31 00:21:20;;;;;;;2.53;1.30;;;;;;;;;;5035356;28;20403;-64
2021/12/31 00:23:46;;;;;;;2.83;1.43;;;;;;;;;;5034898;28;20787;-64
2021/12/31 00:26:12;;;;;;;1.80;1.00;;;;;;;;;;5035150;28;20407;-64
2021/12/31 00:28:38;;;;;;;1.77;1.00;;;;;;;;;;5034820;28;20497;-64
2021/12/31 00:31:04;;;;;;;1.80;1.27;;;;;;;;;;5034594;28;20426;-63
2021/12/31 00:33:31;;;;;;;1.70;1.13;;;;;;;;;;5034226;28;20461;-64
2021/12/31 00:35:57;;;;;;;2.63;1.10;;;;;;;;;;5034401;28;20395;-63
2021/12/31 00:38:23;;;;;;;1.77;0.90;;;;;;;;;;5034334;28;20559;-63
2021/12/31 00:40:49;;;;;;;2.57;1.30;;;;;;;;;;5034145;28;20401;-63
2021/12/31 00:43:15;;;;;;;2.73;1.40;;;;;;;;;;5033542;28;20429;-63
2021/12/31 00:45:43;;;;;;;2.97;1.30;;;;;;;;;;5034003;28;20896;-63
2021/12/31 00:48:10;;;;;;;2.60;1.27;;;;;;;;;;5033457;28;20430;-63
2021/12/31 00:50:36;;;;;;;1.53;0.97;;;;;;;;;;5033434;28;20415;-63
2021/12/31 00:53:03;;;;;;;5.10;1.50;;;;;;;;;;5032897;28;20465;-63
2021/12/31 00:55:29;;;;;;;2.43;1.00;;;;;;;;;;5033839;28;20398;-63
2021/12/31 00:57:55;;;;;;;2.00;1.00;;;;;;;;;;5034437;28;20772;-64
2021/12/31 01:00:21;;;;;;;2.93;0.93;;;;;;;;;;5034391;28;20816;-63
2021/12/31 01:02:47;;;;;;;2.17;1.27;;;;;;;;;;5034183;28;20438;-64
2021/12/31 01:05:14;;;;;;;1.60;0.93;;;;;;;;;;5034181;28;20452;-64
2021/12/31 01:07:40;;;;;;;1.83;1.00;;;;;;;;;;5033977;28;20460;-64
2021/12/31 01:10:07;;;;;;;2.00;0.93;;;;;;;;;;5034282;28;20501;-65
2021/12/31 01:12:33;;;;;;;2.17;1.30;;;;;;;;;;5033983;28;20993;-63
2021/12/31 01:15:03;;;;;;;1.50;0.80;;;;;;;;;;5034226;28;20473;-64
2021/12/31 01:20:22;;;;;;;1.50;0.90;;;;;;;;;;5017995;28;20502;-63
2021/12/31 01:22:49;;;;;;;1.63;0.97;;;;;;;;;;5033892;28;20426;-63
2021/12/31 01:25:15;;;;;;;1.80;1.00;;;;;;;;;;5033636;28;20402;-64
2021/12/31 01:27:42;;;;;;;1.60;0.90;;;;;;;;;;5033797;28;20405;-64
2021/12/31 01:30:09;;;;;;;1.60;1.00;;;;;;;;;;5034027;28;20472;-64
2021/12/31 01:32:35;;;;;;;2.50;0.97;;;;;;;;;;5033530;28;20462;-64
2021/12/31 01:35:01;;;;;;;1.53;0.97;;;;;;;;;;5032838;28;20402;-63
2021/12/31 01:37:27;;;;;;;1.77;0.90;;;;;;;;;;5032524;28;20490;-63
2021/12/31 01:39:54;;;;;;;2.90;1.03;;;;;;;;;;5032560;28;20418;-63
2021/12/31 01:42:27;;;;;;;2.30;1.30;;;;;;;;;;5032696;28;20423;-64
2021/12/31 01:44:58;;;;;;;1.40;1.00;;;;;;;;;;5032681;28;20422;-64
2021/12/31 01:47:33;;;;;;;3.80;1.10;;;;;;;;;;5032654;28;20414;-64
2021/12/31 01:50:05;;;;;;;1.60;0.97;;;;;;;;;;5032878;28;20394;-64
2021/12/31 01:52:31;;;;;;;8.10;1.23;;;;;;;;;;5032739;28;20458;-63
2021/12/31 01:54:57;;;;;;;1.83;1.30;;;;;;;;;;5032539;28;20441;-62
2021/12/31 01:57:24;;;;;;;2.67;1.20;;;;;;;;;;5032897;28;20772;-63
2021/12/31 01:59:50;;;;;;;2.43;1.00;;;;;;;;;;5032831;28;20405;-64
2021/12/31 02:02:17;;;;;;;1.60;1.10;;;;;;;;;;5032472;28;20919;-63
2021/12/31 02:04:44;;;;;;;1.73;1.10;;;;;;;;;;5032401;28;20499;-63
2021/12/31 02:07:10;;;;;;;1.50;0.90;;;;;;;;;;5047645;28;20414;-62
2021/12/31 02:09:43;;;;;;;1.60;1.00;;;;;;;;;;5032270;28;20472;-64
2021/12/31 02:12:11;;;;;;;4.73;1.60;;;;;;;;;;5032186;28;20457;-65
2021/12/31 02:14:37;;;;;;;1.77;1.00;;;;;;;;;;5033358;28;20490;-63
2021/12/31 02:17:07;;;;;;;2.17;1.07;;;;;;;;;;5035844;28;20435;-64
2021/12/31 02:19:33;;;;;;;1.50;0.80;;;;;;;;;;5035751;28;20920;-63
2021/12/31 02:22:00;;;;;;;1.50;1.20;;;;;;;;;;5035873;28;20489;-63
2021/12/31 02:24:26;;;;;;;1.50;1.10;;;;;;;;;;5036829;28;20841;-63
2021/12/31 02:26:52;;;;;;;1.60;0.90;;;;;;;;;;5036880;28;20490;-63
2021/12/31 02:29:19;;;;;;;1.97;1.27;;;;;;;;;;5036857;28;20410;-64
2021/12/31 02:31:45;;;;;;;1.90;1.00;;;;;;;;;;5036706;28;20398;-63
2021/12/31 02:34:12;;;;;;;1.80;1.13;;;;;;;;;;5036659;28;20502;-63
2021/12/31 02:36:38;;;;;;;1.70;1.10;;;;;;;;;;5036725;28;20405;-63
2021/12/31 02:39:04;;;;;;;1.50;0.93;;;;;;;;;;5036448;28;20449;-64
2021/12/31 02:41:31;;;;;;;1.60;1.07;;;;;;;;;;5036411;28;20526;-63
2021/12/31 02:43:57;;;;;;;2.50;1.10;;;;;;;;;;5036557;28;20426;-63
2021/12/31 02:46:23;;;;;;;1.47;1.00;;;;;;;;;;5036629;28;20464;-63
2021/12/31 02:48:55;;;;;;;1.83;1.10;;;;;;;;;;5036420;28;20750;-63
2021/12/31 02:51:22;;;;;;;1.63;1.10;;;;;;;;;;5036668;28;20398;-64
2021/12/31 02:53:51;;;;;;;1.73;1.00;;;;;;;;;;5036301;28;20830;-64
2021/12/31 02:56:18;;;;;;;2.00;1.07;;;;;;;;;;5032962;28;20434;-62
2021/12/31 02:58:45;;;;;;;1.70;1.00;;;;;;;;;;5032242;28;20402;-62
2021/12/31 03:01:12;;;;;;;2.20;1.17;;;;;;;;;;5036082;28;20430;-63
2021/12/31 03:03:40;;;;;;;1.70;1.03;;;;;;;;;;5035784;28;20782;-63
2021/12/31 03:06:07;;;;;;;1.60;1.00;;;;;;;;;;5035620;28;20411;-63
2021/12/31 03:08:39;;;;;;;1.53;1.00;;;;;;;;;;5035364;28;20812;-64
2021/12/31 03:11:06;;;;;;;2.50;1.70;;;;;;;;;;5035644;28;20768;-63
2021/12/31 03:13:34;;;;;;;1.57;1.10;;;;;;;;;;5035319;28;20842;-64
2021/12/31 03:16:00;;;;;;;1.63;1.00;;;;;;;;;;5034957;28;20395;-64
2021/12/31 03:18:27;;;;;;;1.80;1.10;;;;;;;;;;5050638;28;20438;-64
2021/12/31 03:21:10;;;;;;;3.00;1.40;;;;;;;;;;5036083;28;20464;-65
2021/12/31 03:23:36;;;;;;;1.80;1.07;;;;;;;;;;5035986;28;20433;-64
2021/12/31 03:26:02;;;;;;;1.63;1.20;;;;;;;;;;5035710;28;20414;-65
2021/12/31 03:28:28;;;;;;;1.93;1.30;;;;;;;;;;5035859;28;20414;-65
2021/12/31 03:30:54;;;;;;;1.97;1.40;;;;;;;;;;5035284;28;20402;-64
2021/12/31 03:33:21;;;;;;;2.53;1.20;;;;;;;;;;5035389;28;20545;-64
2021/12/31 03:35:47;;;;;;;1.60;1.10;;;;;;;;;;5035461;28;20409;-64
2021/12/31 03:38:13;;;;;;;2.13;1.17;;;;;;;;;;5035424;28;20491;-65
2021/12/31 03:40:40;;;;;;;2.03;1.20;;;;;;;;;;5035673;28;20451;-64
2021/12/31 03:43:09;;;;;;;2.60;1.40;;;;;;;;;;5035426;28;20760;-65
2021/12/31 03:45:36;;;;;;;2.00;1.30;;;;;;;;;;5035568;28;20843;-64
2021/12/31 03:48:02;;;;;;;3.20;1.50;;;;;;;;;;5035447;28;20406;-65
2021/12/31 03:50:28;;;;;;;3.13;1.80;;;;;;;;;;5035476;28;20449;-64
2021/12/31 03:52:54;;;;;;;1.50;1.23;;;;;;;;;;5035094;28;20503;-64
2021/12/31 03:55:21;;;;;;;1.80;1.30;;;;;;;;;;5035423;28;20410;-64
2021/12/31 03:57:47;;;;;;;2.33;1.20;;;;;;;;;;5035057;28;20407;-64
2021/12/31 04:00:13;;;;;;;1.80;1.30;;;;;;;;;;5035071;28;20402;-66
2021/12/31 04:02:40;;;;;;;2.17;1.30;;;;;;;;;;5035379;28;20519;-64
2021/12/31 04:05:06;;;;;;;1.70;1.37;;;;;;;;;;5035065;28;20461;-65
2021/12/31 04:07:32;;;;;;;1.87;1.30;;;;;;;;;;5035058;28;20405;-65
2021/12/31 04:09:58;;;;;;;1.67;1.30;;;;;;;;;;5035088;28;20403;-64
2021/12/31 04:12:24;;;;;;;2.03;1.10;;;;;;;;;;5034662;28;20807;-64
2021/12/31 04:14:50;;;;;;;1.77;1.30;;;;;;;;;;5034856;28;20882;-64
2021/12/31 04:17:16;;;;;;;4.10;1.67;;;;;;;;;;5034266;28;20409;-64
2021/12/31 04:19:43;;;;;;;2.17;1.77;;;;;;;;;;5034356;28;20538;-64
2021/12/31 04:22:12;;;;;;;2.13;1.73;;;;;;;;;;5034452;28;20439;-64
2021/12/31 04:27:07;;;;;;;2.83;1.50;;;;;;;;;;5033957;28;20764;-64
2021/12/31 04:29:34;;;;;;;4.30;2.10;;;;;;;;;;5033853;28;20426;-64
2021/12/31 04:32:00;;;;;;;2.77;1.90;;;;;;;;;;5034166;28;20406;-64
2021/12/31 04:34:27;;;;;;;2.47;1.40;;;;;;;;;;5033923;28;20395;-64
2021/12/31 04:36:53;;;;;;;2.20;1.50;;;;;;;;;;5033544;28;20399;-64
2021/12/31 04:39:19;;;;;;;3.30;1.67;;;;;;;;;;5019247;28;20493;-64
2021/12/31 04:41:45;;;;;;;4.10;2.20;;;;;;;;;;5033702;28;20390;-64
2021/12/31 04:44:11;;;;;;;5.27;3.00;;;;;;;;;;5033727;28;20422;-64
2021/12/31 04:46:37;;;;;;;5.20;2.73;;;;;;;;;;5033923;28;20847;-64
2021/12/31 04:49:04;;;;;;;4.17;2.47;;;;;;;;;;5033575;28;20485;-64
2021/12/31 04:51:30;;;;;;;3.00;1.60;;;;;;;;;;5033386;28;20407;-64
2021/12/31 04:53:56;;;;;;;2.27;1.40;;;;;;;;;;5033353;28;20484;-64
2021/12/31 04:56:22;;;;;;;2.30;1.53;;;;;;;;;;5033569;28;20760;-64
2021/12/31 04:58:48;;;;;;;3.23;1.90;;;;;;;;;;5033292;28;20945;-64
2021/12/31 05:01:14;;;;;;;2.37;1.40;;;;;;;;;;5033499;28;20481;-64
2021/12/31 05:03:40;;;;;;;3.67;2.17;;;;;;;;;;5034079;28;20426;-64
2021/12/31 05:06:06;;;;;;;8.90;2.47;;;;;;;;;;5033565;28;20407;-64
2021/12/31 05:08:32;;;;;;;3.20;2.07;;;;;;;;;;5033497;28;20410;-63
2021/12/31 05:10:59;;;;;;;2.63;1.80;;;;;;;;;;5033221;28;20769;-64
2021/12/31 05:13:25;;;;;;;5.60;1.70;;;;;;;;;;5033715;28;20477;-64
2021/12/31 05:15:52;;;;;;;2.47;1.53;;;;;;;;;;5030098;28;20423;-63
2021/12/31 05:18:18;;;;;;;3.07;2.30;;;;;;;;;;5033045;28;20494;-64
2021/12/31 05:20:44;;;;;;;3.60;1.80;;;;;;;;;;5033789;28;20426;-64
2021/12/31 05:23:11;;;;;;;3.60;1.90;;;;;;;;;;5033439;28;20434;-63
2021/12/31 05:25:37;;;;;;;4.13;2.37;;;;;;;;;;5033453;28;20411;-63
2021/12/31 05:28:03;;;;;;;3.13;1.70;;;;;;;;;;5033407;28;20410;-63
2021/12/31 05:30:29;;;;;;;7.67;2.47;;;;;;;;;;5033515;28;20743;-63
2021/12/31 05:32:56;;;;;;;2.80;2.03;;;;;;;;;;5032785;28;20544;-63
2021/12/31 05:35:22;;;;;;;6.17;2.57;;;;;;;;;;5033434;28;20399;-63
2021/12/31 05:37:48;;;;;;;7.93;2.70;;;;;;;;;;5048679;28;20418;-63
2021/12/31 05:40:14;;;;;;;5.70;2.50;;;;;;;;;;5033039;28;20430;-63
2021/12/31 05:42:40;;;;;;;6.73;3.53;;;;;;;;;;5033306;28;20418;-63
2021/12/31 05:45:07;;;;;;;3.57;2.20;;;;;;;;;;5033415;28;20540;-64
2021/12/31 05:47:33;;;;;;;2.83;1.80;;;;;;;;;;5033657;28;20411;-63
2021/12/31 05:49:59;;;;;;;2.60;2.10;;;;;;;;;;5036520;28;20406;-63
2021/12/31 05:52:25;;;;;;;1.93;1.57;;;;;;;;;;5037143;28;20811;-63
2021/12/31 05:54:51;;;;;;;2.00;1.60;;;;;;;;;;5036832;28;20406;-63
2021/12/31 05:57:17;;;;;;;2.20;1.40;;;;;;;;;;5036780;28;20485;-63
2021/12/31 05:59:43;;;;;;;6.20;2.53;;;;;;;;;;5037054;28;20876;-63
2021/12/31 06:02:09;;;;;;;2.47;1.47;;;;;;;;;;5036574;28;20525;-63
2021/12/31 06:04:37;;;;;;;1.60;1.33;;;;;;;;;;5036831;28;20480;-63
2021/12/31 06:07:03;;;;;;;2.47;1.57;;;;;;;;;;5036807;28;20402;-63
2021/12/31 06:09:30;;;;;;;2.23;1.40;;;;;;;;;;5036986;28;20537;-63
2021/12/31 06:11:56;;;;;;;3.53;1.50;;;;;;;;;;5036707;28;20403;-63
2021/12/31 06:14:22;;;;;;;2.27;1.57;;;;;;;;;;5036712;28;20399;-63
2021/12/31 06:16:48;;;;;;;2.17;1.40;;;;;;;;;;5051809;28;20416;-63
2021/12/31 06:19:15;;;;;;;2.47;1.63;;;;;;;;;;5036572;28;20926;-63
2021/12/31 06:21:43;;;;;;;3.03;1.60;;;;;;;;;;5036784;28;20406;-62
2021/12/31 06:24:10;;;;;;;1.50;1.10;;;;;;;;;;5036264;28;20462;-63
2021/12/31 06:26:37;;;;;;;2.60;1.50;;;;;;;;;;5035917;28;20497;-62
2021/12/31 06:29:03;;;;;;;2.50;1.27;;;;;;;;;;5036329;28;20406;-63
2021/12/31 06:31:30;;;;;;;2.20;1.50;;;;;;;;;;5036481;28;20398;-63
2021/12/31 06:33:56;;;;;;;2.63;1.60;;;;;;;;;;5036097;28;20854;-63
2021/12/31 06:36:22;;;;;;;2.77;1.40;;;;;;;;;;5036378;28;20816;-63
2021/12/31 06:38:50;;;;;;;2.50;1.70;;;;;;;;;;5036380;28;20422;-63
2021/12/31 06:41:16;;;;;;;1.80;1.40;;;;;;;;;;5036200;28;20413;-63
2021/12/31 06:43:43;;;;;;;2.40;1.50;;;;;;;;;;5036236;28;20438;-63
2021/12/31 06:46:09;;;;;;;2.43;1.63;;;;;;;;;;5036000;28;20490;-63
2021/12/31 06:48:35;;;;;;;2.50;1.43;;;;;;;;;;5036336;28;20399;-63
2021/12/31 06:51:01;;;;;;;1.90;1.60;;;;;;;;;;5035873;28;20887;-63
2021/12/31 06:53:27;;;;;;;2.40;1.60;;;;;;;;;;5035662;28;21028;-64
2021/12/31 06:55:53;;;;;;;5.30;1.67;;;;;;;;;;5035844;28;20456;-64
2021/12/31 06:58:19;;;;;;;1.80;1.30;;;;;;;;;;5035796;28;20829;-63
2021/12/31 07:00:45;;;;;;;1.73;1.03;;;;;;;;;;5034978;28;20887;-63
2021/12/31 07:03:12;;;;;;;2.10;1.57;;;;;;;;;;5035758;28;20429;-63
2021/12/31 07:05:42;;;;;;;2.83;1.77;;;;;;;;;;5035862;28;20410;-64
2021/12/31 07:08:08;;;;;;;2.43;1.57;;;;;;;;;;5035801;28;20453;-63
2021/12/31 07:10:34;;;;;;;2.97;1.40;;;;;;;;;;5035915;28;20399;-64
2021/12/31 07:13:01;;;;;;;2.20;2.00;;;;;;;;;;5035853;28;20508;-63
2021/12/31 07:15:27;;;;;;;2.57;1.50;;;;;;;;;;5035645;28;20459;-64
2021/12/31 07:17:53;;;;;;;2.87;1.60;;;;;;;;;;5035665;28;20402;-63
2021/12/31 07:20:20;;;;;;;1.70;1.30;;;;;;;;;;5035310;28;20493;-63
2021/12/31 07:22:46;;;;;;;3.20;1.80;;;;;;;;;;5035213;28;20429;-63
2021/12/31 07:25:13;;;;;;;2.13;1.77;;;;;;;;;;5050466;28;20779;-64
2021/12/31 07:27:39;;;;;;;2.43;1.80;;;;;;;;;;5035397;28;20930;-65
2021/12/31 07:30:05;;;;;;;2.70;1.63;;;;;;;;;;5037415;28;20505;-66
2021/12/31 07:32:38;;;;;;;2.50;1.87;;;;;;;;;;5034269;28;20458;-65
2021/12/31 07:35:05;;;;;;;2.63;1.70;;;;;;;;;;5034902;28;20450;-65
2021/12/31 07:37:31;;;;;;;3.67;1.80;;;;;;;;;;5033214;28;20421;-65
2021/12/31 07:40:04;;;;;;;3.23;1.90;;;;;;;;;;5034149;28;20769;-65
2021/12/31 07:42:30;;;;;;;2.20;1.87;;;;;;;;;;5032391;28;20440;-65
2021/12/31 07:44:56;;;;;;;2.10;1.50;;;;;;;;;;5034507;28;20418;-65
2021/12/31 07:47:22;;;;;;;3.70;2.20;;;;;;;;;;5034457;28;20410;-64
2021/12/31 07:49:48;;;;;;;2.40;2.00;;;;;;;;;;5034659;28;20464;-64
2021/12/31 07:52:14;;;;;;;3.77;2.40;;;;;;;;;;5034169;28;20862;-64
2021/12/31 07:54:40;;;;;;;2.90;2.30;;;;;;;;;;5034106;28;20488;-64
2021/12/31 07:57:06;;;;;;;2.63;1.57;;;;;;;;;;5034189;28;20443;-65
2021/12/31 07:59:32;;;;;;;2.50;1.57;;;;;;;;;;5034352;28;20391;-64
2021/12/31 08:01:58;;;;;;;3.67;1.63;;;;;;;;;;5033897;28;20465;-65
2021/12/31 08:04:24;;;;;;;3.20;1.60;;;;;;;;;;5034405;28;20394;-65
2021/12/31 08:06:50;;;;;;;2.50;1.90;;;;;;;;;;5034211;28;20464;-65
2021/12/31 08:09:16;;;;;;;3.30;1.83;;;;;;;;;;5033879;28;20431;-65
2021/12/31 08:11:42;;;;;;;2.67;2.10;;;;;;;;;;5033412;28;20452;-64
2021/12/31 08:14:08;;;;;;;2.57;1.70;;;;;;;;;;5033166;28;20454;-65
2021/12/31 08:16:34;;;;;;;4.37;1.60;;;;;;;;;;5037513;28;20413;-64
2021/12/31 08:19:00;;;;;;;2.17;1.60;;;;;;;;;;5038591;28;20763;-64
2021/12/31 08:21:26;;;;;;;2.13;1.50;;;;;;;;;;5038700;28;20474;-64
2021/12/31 08:23:52;;;;;;;2.97;2.13;;;;;;;;;;5039230;28;20456;-64
2021/12/31 08:26:19;;;;;;;2.93;1.73;;;;;;;;;;5037969;28;20437;-64
2021/12/31 08:28:45;;;;;;;3.13;2.10;;;;;;;;;;5038921;28;20421;-64
2021/12/31 08:31:11;;;;;;;2.37;1.70;;;;;;;;;;5038126;28;20414;-64
2021/12/31 08:33:37;;;;;;;2.43;1.77;;;;;;;;;;5038236;28;20450;-64
2021/12/31 08:36:03;;;;;;;3.40;2.10;;;;;;;;;;5038154;28;20887;-65
2021/12/31 08:38:29;;;;;;;3.50;1.93;;;;;;;;;;5036064;28;20453;-65
2021/12/31 08:40:57;;;;;;;3.80;2.00;;;;;;;;;;5035637;28;20434;-65
2021/12/31 08:43:23;;;;;;;4.10;2.10;;;;;;;;;;5037147;28;20430;-65
2021/12/31 08:45:49;;;;;;;2.30;1.63;;;;;;;;;;5038179;28;20402;-64
2021/12/31 08:48:15;;;;;;;2.47;1.40;;;;;;;;;;5038265;28;20418;-65
2021/12/31 08:50:41;;;;;;;3.87;1.77;;;;;;;;;;5037886;28;20410;-65
2021/12/31 08:53:07;;;;;;;2.40;1.67;;;;;;;;;;5037947;28;20461;-65
2021/12/31 08:55:33;;;;;;;4.70;1.67;;;;;;;;;;5037902;28;20430;-65
2021/12/31 08:58:00;;;;;;;2.60;1.40;;;;;;;;;;5037713;28;20402;-65
2021/12/31 09:00:26;;;;;;;2.30;1.70;;;;;;;;;;5037683;28;20771;-65
2021/12/31 09:02:52;;;;;;;3.20;2.00;;;;;;;;;;5037562;28;20493;-65
2021/12/31 09:05:18;;;;;;;3.70;1.60;;;;;;;;;;5037992;28;20410;-65
2021/12/31 09:07:44;;;;;;;2.27;1.83;;;;;;;;;;5037499;28;20426;-64
2021/12/31 09:10:10;;;;;;;2.30;1.40;;;;;;;;;;5038144;28;20402;-65
2021/12/31 09:12:37;;;;;;;2.20;1.33;;;;;;;;;;5038503;28;20446;-65
2021/12/31 09:15:03;;;;;;;3.40;1.50;;;;;;;;;;5037875;28;20409;-65
2021/12/31 09:17:29;;;;;;;4.03;2.00;;;;;;;;;;5037638;28;20418;-65
2021/12/31 09:19:55;;;;;;;2.43;1.50;;;;;;;;;;5037548;28;20404;-65
2021/12/31 09:22:21;;;;;;;3.60;2.03;;;;;;;;;;5037385;28;20494;-65
2021/12/31 09:24:50;;;;;;;5.00;1.60;;;;;;;;;;5038815;28;20406;-66
2021/12/31 09:27:17;;;;;;;2.80;1.80;;;;;;;;;;5036803;28;20405;-66
2021/12/31 09:29:43;;;;;;;2.33;1.53;;;;;;;;;;5037271;28;20405;-66
2021/12/31 09:32:09;;;;;;;2.77;1.87;;;;;;;;;;5036804;28;20425;-66
2021/12/31 09:34:35;;;;;;;2.73;1.67;;;;;;;;;;5037001;28;20402;-65
2021/12/31 09:37:01;;;;;;;2.67;1.70;;;;;;;;;;5036707;28;20899;-66
2021/12/31 09:39:27;;;;;;;5.40;1.70;;;;;;;;;;5036487;28;20501;-65
2021/12/31 09:41:53;;;;;;;3.10;2.10;;;;;;;;;;5040165;28;20395;-65
2021/12/31 09:44:22;;;;;;;4.73;1.90;;;;;;;;;;5041167;28;20406;-65
2021/12/31 09:46:48;;;;;;;4.40;1.87;;;;;;;;;;5041548;28;20441;-65
2021/12/31 09:49:14;;;;;;;2.00;1.40;;;;;;;;;;5041698;28;20481;-65
2021/12/31 09:51:44;;;;;;;1.80;1.03;;;;;;;;;;5041221;28;20403;-65
2021/12/31 09:54:11;;;;;;;1.60;1.10;;;;;;;;;;5040761;28;20833;-65
2021/12/31 09:56:39;;;;;;;2.67;1.43;;;;;;;;;;5039949;28;20407;-65
2021/12/31 09:59:06;;;;;;;2.60;1.40;;;;;;;;;;5040401;28;20410;-65
2021/12/31 10:01:32;;;;;;;1.77;1.20;;;;;;;;;;5040839;28;20485;-64
2021/12/31 10:04:02;;;;;;;3.20;1.07;;;;;;;;;;5040812;28;20431;-65
2021/12/31 10:06:28;;;;;;;1.77;1.13;;;;;;;;;;5040338;28;20398;-65
2021/12/31 10:08:57;;;;;;;2.97;1.50;;;;;;;;;;5039106;28;20414;-65
2021/12/31 10:11:26;;;;;;;1.80;1.30;;;;;;;;;;5041310;28;20558;-65
2021/12/31 10:13:52;;;;;;;1.80;1.30;;;;;;;;;;5040672;28;20457;-64
2021/12/31 10:16:23;;;;;;;1.60;1.10;;;;;;;;;;5039498;28;20399;-64
2021/12/31 10:18:49;;;;;;;2.47;1.10;;;;;;;;;;5039035;28;20748;-64
2021/12/31 10:21:19;;;;;;;1.70;1.00;;;;;;;;;;5038534;28;20908;-64
2021/12/31 10:23:47;;;;;;;2.10;1.47;;;;;;;;;;5038758;28;20418;-64
2021/12/31 10:26:14;;;;;;;1.40;1.03;;;;;;;;;;5037750;28;20477;-64
2021/12/31 10:28:54;;;;;;;1.67;1.00;;;;;;;;;;5036748;28;20769;-64
2021/12/31 10:31:21;;;;;;;1.63;1.10;;;;;;;;;;5017906;28;20414;-65
2021/12/31 10:33:47;;;;;;;1.60;1.10;;;;;;;;;;5036528;28;20788;-64
2021/12/31 10:36:34;;;;;;;2.23;1.20;;;;;;;;;;5037550;28;20410;-65
2021/12/31 10:39:03;;;;;;;2.83;1.07;;;;;;;;;;5040992;28;20440;-66
2021/12/31 10:41:29;;;;;;;2.60;1.20;;;;;;;;;;5036713;28;20513;-65
2021/12/31 11:13:56;;;;;;;2.23;1.00;;;;;;;;;;5510307;22;20313;-79
2021/12/31 11:16:23;;;;;;;7.23;1.73;;;;;;;;;;5039176;28;20422;-81
2021/12/31 11:18:50;;;;;;;1.93;1.10;;;;;;;;;;5040432;28;20421;-80
2021/12/31 11:21:16;;;;;;;2.30;1.30;;;;;;;;;;5040767;28;20413;-82
2021/12/31 11:23:43;;;;;;;3.10;1.30;;;;;;;;;;5035172;28;20442;-81
2021/12/31 11:26:13;;;;;;;1.53;0.97;;;;;;;;;;5035764;23;20577;-75
2021/12/31 11:28:43;;;;;;;1.93;0.90;;;;;;;;;;5031114;28;20402;-76
2021/12/31 11:31:18;;;;;;;1.53;0.90;;;;;;;;;;5016347;28;20552;-76
2021/12/31 11:33:48;;;;;;;4.17;1.20;;;;;;;;;;5031683;28;20462;-76
2021/12/31 11:36:14;;;;;;;1.90;0.90;;;;;;;;;;5034591;28;20430;-76
2021/12/31 11:38:42;;;;;;;1.80;1.20;;;;;;;;;;5034370;28;20910;-76
2021/12/31 11:41:11;;;;;;;1.50;1.03;;;;;;;;;;5034466;28;20457;-76
2021/12/31 11:43:38;;;;;;;2.20;1.30;;;;;;;;;;5033930;28;20453;-77
2021/12/31 11:46:15;;;;;;;2.30;0.87;;;;;;;;;;5034248;28;20484;-76
2021/12/31 11:48:44;;;;;;;2.80;1.03;;;;;;;;;;5034353;28;20409;-76
2021/12/31 12:20:13;;;;;;;1.90;1.10;;;;;;;;;;6097035;22;21556;-79
2021/12/31 12:22:55;;;;;;;2.00;1.03;;;;;;;;;;5004557;28;20455;-79
2021/12/31 12:25:23;;;;;;;2.43;0.90;;;;;;;;;;5002960;28;20418;-80
2021/12/31 12:27:53;;;;;;;1.67;1.10;;;;;;;;;;5001494;28;20403;-80
2021/12/31 12:30:19;;;;;;;1.70;0.80;;;;;;;;;;4999644;28;20419;-79
2021/12/31 12:35:12;;;;;;;3.10;1.13;;;;;;;;;;5016678;28;20414;-78
2021/12/31 12:37:38;;;;;;;1.80;1.10;;;;;;;;;;4999656;28;20407;-78
2021/12/31 12:40:05;;;;;;;2.43;1.13;;;;;;;;;;4998371;28;20416;-79
2021/12/31 12:42:31;;;;;;;2.97;0.90;;;;;;;;;;5017185;28;20404;-78
2021/12/31 13:46:32;;;;;;;2.17;1.20;;;;;;;;;;5612653;22;20829;-79
2021/12/31 13:49:05;;;;;;;1.63;1.10;;;;;;;;;;4967438;28;20453;-80
2021/12/31 13:51:31;;;;;;;3.53;1.27;;;;;;;;;;4960286;29;20429;-79
2021/12/31 13:53:57;;;;;;;2.93;1.87;;;;;;;;;;4964740;29;20486;-80
2021/12/31 13:56:35;;;;;;;1.80;1.20;;;;;;;;;;4967344;28;20437;-80
2021/12/31 13:59:20;;;;;;;2.27;1.10;;;;;;;;;;4976645;23;20489;-60
2021/12/31 14:02:01;;;;;;;4.10;1.30;;;;;;;;;;4974143;28;20393;-57
2021/12/31 14:04:27;;;;;;;2.17;1.47;;;;;;;;;;4974044;28;20413;-54
2021/12/31 14:06:59;;;;;;;2.20;1.33;;;;;;;;;;4973715;28;20452;-57
2021/12/31 14:09:25;;;;;;;1.97;1.20;;;;;;;;;;4973834;28;20476;-54
2021/12/31 14:11:53;;;;;;;3.27;1.53;;;;;;;;;;4976375;28;20898;-58
2021/12/31 14:14:19;;;;;;;2.23;1.40;;;;;;;;;;4977180;28;20452;-57
2021/12/31 14:16:45;;;;;;;2.30;1.00;;;;;;;;;;4972449;28;20496;-58
2021/12/31 14:19:11;;;;;;;2.13;1.20;;;;;;;;;;4977005;28;20904;-63
2021/12/31 14:21:38;;;;;;;2.50;1.70;;;;;;;;;;4977265;28;20405;-62
2021/12/31 14:24:04;;;;;;;2.67;1.40;;;;;;;;;;4977367;28;20409;-66
2021/12/31 14:26:30;;;;;;;3.00;1.30;;;;;;;;;;4978026;28;20802;-65
2021/12/31 14:28:56;;;;;;;2.13;1.47;;;;;;;;;;4978279;28;20413;-67
2021/12/31 14:31:23;;;;;;;2.67;1.83;;;;;;;;;;4977234;28;20401;-68
2021/12/31 14:33:49;;;;;;;2.60;1.50;;;;;;;;;;4977128;28;20507;-67
2021/12/31 14:36:15;;;;;;;2.20;1.30;;;;;;;;;;4977006;28;20437;-61
2021/12/31 14:38:41;;;;;;;2.73;1.70;;;;;;;;;;4976964;28;20918;-68
2021/12/31 14:41:21;;;;;;;3.20;1.33;;;;;;;;;;4976831;28;20409;-61
2021/12/31 14:43:48;;;;;;;3.40;1.50;;;;;;;;;;4976680;28;20393;-60
2021/12/31 14:46:14;;;;;;;3.50;1.80;;;;;;;;;;4976833;28;20413;-61
2021/12/31 14:48:40;;;;;;;2.27;1.53;;;;;;;;;;4976567;28;20501;-61
2021/12/31 14:51:06;;;;;;;3.07;1.50;;;;;;;;;;4976705;28;20464;-61
2021/12/31 14:53:32;;;;;;;5.93;1.80;;;;;;;;;;4976351;28;20460;-61
2021/12/31 14:55:58;;;;;;;3.07;1.83;;;;;;;;;;4976443;28;20453;-60
2021/12/31 14:58:24;;;;;;;3.40;1.77;;;;;;;;;;4976458;28;20473;-61
2021/12/31 15:00:50;;;;;;;3.03;1.90;;;;;;;;;;4976608;28;20480;-58
2021/12/31 15:03:16;;;;;;;2.87;1.77;;;;;;;;;;4976451;28;21017;-66
2021/12/31 15:05:42;;;;;;;6.13;1.90;;;;;;;;;;4975316;28;20417;-59
2021/12/31 15:08:08;;;;;;;2.47;1.73;;;;;;;;;;4976412;28;20487;-59
2021/12/31 15:10:34;;;;;;;5.47;2.27;;;;;;;;;;4976581;28;20414;-61
2021/12/31 15:13:00;;;;;;;4.03;1.80;;;;;;;;;;4976553;28;20453;-60
2021/12/31 15:15:26;;;;;;;2.47;1.77;;;;;;;;;;4976449;28;20778;-59
2021/12/31 15:17:52;;;;;;;4.77;1.70;;;;;;;;;;4976086;28;20939;-59
2021/12/31 15:20:20;;;;;;;3.07;2.07;;;;;;;;;;4974876;28;20499;-59
2021/12/31 15:22:46;;;;;;;3.40;2.13;;;;;;;;;;4975459;28;20417;-59
2021/12/31 15:25:12;;;;;;;4.17;2.20;;;;;;;;;;4975989;28;20484;-60
2021/12/31 15:27:38;;;;;;;2.80;1.90;;;;;;;;;;4975803;28;20433;-61
2021/12/31 15:30:04;;;;;;;2.97;2.53;;;;;;;;;;4975978;28;20397;-65
2021/12/31 15:32:30;;;;;;;3.73;2.53;;;;;;;;;;4975897;28;20452;-63
2021/12/31 15:34:56;;;;;;;2.23;1.60;;;;;;;;;;4975826;28;20762;-64
2021/12/31 15:37:22;;;;;;;2.80;1.30;;;;;;;;;;4973613;28;20440;-65
2021/12/31 15:39:48;;;;;;;2.60;1.70;;;;;;;;;;4974644;28;20517;-62
2021/12/31 15:42:14;;;;;;;2.17;1.47;;;;;;;;;;4975103;28;20488;-60
2021/12/31 15:44:41;;;;;;;2.67;1.73;;;;;;;;;;4975079;28;20417;-61
2021/12/31 15:47:07;;;;;;;2.27;1.60;;;;;;;;;;4975449;28;20425;-59
2021/12/31 15:49:33;;;;;;;4.10;1.73;;;;;;;;;;4975685;28;20487;-61
2021/12/31 15:51:59;;;;;;;8.90;2.10;;;;;;;;;;4975702;28;20480;-62
2021/12/31 15:54:25;;;;;;;3.03;1.90;;;;;;;;;;4975953;28;20475;-67
2021/12/31 15:56:54;;;;;;;3.73;1.97;;;;;;;;;;4974516;28;20440;-60
2021/12/31 15:59:20;;;;;;;3.83;2.40;;;;;;;;;;4975396;28;20440;-59
2021/12/31 16:01:46;;;;;;;4.87;1.80;;;;;;;;;;4975915;28;20409;-60
2021/12/31 16:04:13;;;;;;;2.67;1.80;;;;;;;;;;4972236;28;20429;-60
2021/12/31 16:06:39;;;;;;;3.50;2.20;;;;;;;;;;4964463;28;20464;-60
2021/12/31 16:09:05;;;;;;;4.47;2.80;;;;;;;;;;4955871;29;20945;-60
2021/12/31 16:11:31;;;;;;;5.00;3.20;;;;;;;;;;4956292;29;20413;-60
2021/12/31 16:13:59;;;;;;;5.87;3.33;;;;;;;;;;4956109;29;20537;-60
2021/12/31 16:16:25;;;;;;;4.80;3.63;;;;;;;;;;4955703;29;20400;-61
2021/12/31 16:18:51;;;;;;;4.30;2.47;;;;;;;;;;4955659;28;20429;-60
2021/12/31 16:21:18;;;;;;;3.57;2.53;;;;;;;;;;4955659;29;20406;-59
2021/12/31 16:23:44;;;;;;;2.60;2.10;;;;;;;;;;4955886;29;20442;-60
2021/12/31 16:26:11;;;;;;;7.40;2.53;;;;;;;;;;4955564;29;20901;-60
2021/12/31 16:28:38;;;;;;;3.13;2.00;;;;;;;;;;4955511;28;20437;-60
2021/12/31 16:31:04;;;;;;;2.70;1.80;;;;;;;;;;4955827;29;20418;-60
2021/12/31 16:33:31;;;;;;;4.30;2.77;;;;;;;;;;4954670;28;20496;-60
2021/12/31 16:36:00;;;;;;;4.33;2.20;;;;;;;;;;4954340;29;20414;-59
2021/12/31 16:38:28;;;;;;;2.87;1.93;;;;;;;;;;4955958;28;20473;-60
2021/12/31 16:40:54;;;;;;;3.30;2.13;;;;;;;;;;4955810;29;20818;-60
2021/12/31 16:43:20;;;;;;;3.40;2.43;;;;;;;;;;4955635;29;20414;-59
2021/12/31 16:45:46;;;;;;;3.70;2.20;;;;;;;;;;4955269;29;20402;-61
2021/12/31 16:48:12;;;;;;;4.73;2.27;;;;;;;;;;4955272;28;20568;-58
2021/12/31 16:50:38;;;;;;;5.33;2.37;;;;;;;;;;4955476;29;20414;-58